createdAt,value
2019-03-19T00:00:15.836Z,12.77
2019-03-19T00:02:44.490Z,14.33
2019-03-19T00:05:13.272Z,7.07
2019-03-19T00:07:41.985Z,11.93
2019-03-19T00:10:10.749Z,11.17
2019-03-19T00:12:39.466Z,8.37
2019-03-19T00:15:10.069Z,5.17
2019-03-19T00:17:38.762Z,9.43
2019-03-19T00:20:12.985Z,9.93
2019-03-19T00:22:41.704Z,8.60
2019-03-19T00:25:10.525Z,7.00
2019-03-19T00:27:39.440Z,10.47
2019-03-19T00:30:16.218Z,11.23
2019-03-19T00:32:45.081Z,12.90
2019-03-19T00:35:14.096Z,12.27
2019-03-19T00:37:42.853Z,10.57
2019-03-19T00:40:13.101Z,8.97
2019-03-19T00:42:41.740Z,10.30
2019-03-19T00:45:11.994Z,10.43
2019-03-19T00:47:40.606Z,8.00
2019-03-19T00:50:11.260Z,9.23
2019-03-19T00:52:40.009Z,10.60
2019-03-19T00:55:08.811Z,13.60
2019-03-19T00:57:37.427Z,9.70
2019-03-19T01:02:56.718Z,9.60
2019-03-19T01:05:25.678Z,15.43
2019-03-19T01:07:56.118Z,15.90
2019-03-19T01:10:25.058Z,14.37
2019-03-19T01:12:53.650Z,11.63
2019-03-19T01:15:22.388Z,10.87
2019-03-19T01:17:51.102Z,10.17
2019-03-19T01:20:19.907Z,10.27
2019-03-19T01:22:48.553Z,12.20
2019-03-19T01:25:17.327Z,15.17
2019-03-19T01:27:46.008Z,9.13
2019-03-19T01:30:16.013Z,14.80
2019-03-19T01:32:44.710Z,10.87
2019-03-19T01:35:13.419Z,13.40
2019-03-19T01:37:42.217Z,11.47
2019-03-19T01:40:11.974Z,11.33
2019-03-19T01:42:40.578Z,11.93
2019-03-19T01:45:11.480Z,12.57
2019-03-19T01:47:40.187Z,14.50
2019-03-19T01:50:13.556Z,13.23
2019-03-19T01:52:42.242Z,15.47
2019-03-19T01:55:15.285Z,14.60
2019-03-19T01:57:43.998Z,16.77
2019-03-19T02:00:17.810Z,13.33
2019-03-19T02:02:46.560Z,14.00
2019-03-19T02:05:15.347Z,13.50
2019-03-19T02:07:44.103Z,19.37
2019-03-19T02:10:14.031Z,22.73
2019-03-19T02:12:42.780Z,20.50
2019-03-19T02:15:16.276Z,13.30
2019-03-19T02:17:45.082Z,13.53
2019-03-19T02:20:15.254Z,13.10
2019-03-19T02:22:44.055Z,13.10
2019-03-19T02:25:12.863Z,11.80
2019-03-19T02:27:41.485Z,13.80
2019-03-19T02:30:14.773Z,14.13
2019-03-19T02:32:43.542Z,16.83
2019-03-19T02:35:12.346Z,15.17
2019-03-19T02:37:41.040Z,21.40
2019-03-19T02:40:11.944Z,22.00
2019-03-19T02:42:40.633Z,15.77
2019-03-19T02:45:11.033Z,13.10
2019-03-19T02:47:39.717Z,17.57
2019-03-19T02:50:14.091Z,12.80
2019-03-19T02:52:42.939Z,13.93
2019-03-19T02:55:11.641Z,12.47
2019-03-19T02:57:40.453Z,14.13
2019-03-19T03:00:19.680Z,16.00
2019-03-19T03:02:48.439Z,15.30
2019-03-19T03:05:18.623Z,14.60
2019-03-19T03:07:47.374Z,13.50
2019-03-19T03:10:16.159Z,15.70
2019-03-19T03:12:44.993Z,12.80
2019-03-19T03:15:16.598Z,15.97
2019-03-19T03:17:45.359Z,10.77
2019-03-19T03:20:14.922Z,14.53
2019-03-19T03:22:43.687Z,17.43
2019-03-19T03:25:13.788Z,17.33
2019-03-19T03:27:42.529Z,15.30
2019-03-19T03:30:18.790Z,15.97
2019-03-19T03:32:47.509Z,13.50
2019-03-19T03:35:16.309Z,14.67
2019-03-19T03:37:44.990Z,14.53
2019-03-19T03:40:43.985Z,21.23
2019-03-19T03:43:12.844Z,18.53
2019-03-19T03:45:41.785Z,13.90
2019-03-19T03:48:10.705Z,17.90
2019-03-19T03:50:39.665Z,21.07
2019-03-19T03:53:08.347Z,22.80
2019-03-19T03:55:37.007Z,29.67
2019-03-19T03:58:05.842Z,21.53
2019-03-19T04:00:34.615Z,22.40
